Auburn Hills, Michigan
Current Conditions -  °F | °C
As of 12:55 PM on Monday 24 Nov 2014 (Local Time) from KVLL Reporting Station
Broken Clouds Broken Clouds  
Wind Chill: 61°   Ceiling: 4500
Heat Index: 61°   Visibility: 10mi
Dew Point: 48°   Wind: 25mph
Humidity: 63%   Direction: 200°SSW
Pressure: 29.12"   Gusts: 40mph
Location:  42.67°N, 83.22°W
Report Text: KVLL 241755Z AUTO 20022G35KT 10SM SCT030 SCT036 BKN045 16/09 A2912 RMK AO2 T01600089 10160 20132
Loading
Personal Weather Stations






























Interactive Weather Map New forecast layout! Learn more

10-Day Weather Forecast

Advertisements
Track Severe Weather on mobile